Terminal Aerodrome Forecast
Issued by NWS Corpus Christi, TX

Current Version | Previous Version | Text Only | Print | Product List | Glossary On
Versions: 1 2 3 4 5 6 7 8 9 10 11 12 13 14 15 16
205
FTUS44 KCRP 221738
TAFVCT
TAF
KVCT 221738Z 2218/2318 12011KT P6SM VCTS BKN035CB
      TEMPO 2218/2220 BKN025CB
     FM230000 13008KT P6SM SCT015 SCT025
     FM230400 12006KT P6SM BKN015
     FM231500 14014KT P6SM SCT015 BKN025=

USA.gov is the U.S. government's official web portal to all federal, state and local government web resources and services.